Time;durP1;ratioP1;P1;durP2;ratioP2;P2;SDS_P1;SDS_P2;PMS_P1;PMS_P2;Temp;Humidity;BMP_temperature;BMP_pressure;BME280_temperature;BME280_humidity;BME280_pressure;Samples;Min_cycle;Max_cycle;Signal;HPM_P1;HPM_P2
2023/11/30 00:01:47;;;;;;;12.48;9.57;;;9.60;96.70;;;;;;4833774;29;20045;-61
2023/11/30 00:04:16;;;;;;;12.05;9.23;;;9.50;96.70;;;;;;4842043;29;20125;-62
2023/11/30 00:06:45;;;;;;;13.90;9.63;;;9.60;96.70;;;;;;4846843;29;20462;-61
2023/11/30 00:09:13;;;;;;;13.23;9.52;;;9.60;96.70;;;;;;4844903;29;20060;-62
2023/11/30 00:11:42;;;;;;;16.05;10.85;;;9.60;96.70;;;;;;4825674;29;20408;-61
2023/11/30 00:14:11;;;;;;;14.55;10.70;;;9.60;96.70;;;;;;4857573;29;20079;-61
2023/11/30 00:16:40;;;;;;;17.42;12.10;;;9.60;96.70;;;;;;4832247;29;20517;-61
2023/11/30 00:19:10;;;;;;;14.88;10.93;;;9.60;96.70;;;;;;4825383;29;20068;-62
2023/11/30 00:21:39;;;;;;;16.63;11.85;;;9.50;96.70;;;;;;4834162;29;20102;-64
2023/11/30 00:24:08;;;;;;;15.52;12.00;;;9.50;96.70;;;;;;4836565;29;20049;-62
2023/11/30 00:26:37;;;;;;;15.55;11.32;;;9.50;96.70;;;;;;4844604;29;20065;-62
2023/11/30 00:29:06;;;;;;;14.63;11.98;;;9.50;96.70;;;;;;4842114;29;20056;-62
2023/11/30 00:31:35;;;;;;;13.35;11.05;;;9.40;96.70;;;;;;4839897;29;20057;-61
2023/11/30 00:34:04;;;;;;;14.77;11.57;;;9.50;96.70;;;;;;4842158;29;20037;-62
2023/11/30 00:36:34;;;;;;;16.48;10.93;;;9.50;96.70;;;;;;4848223;29;20053;-62
2023/11/30 00:39:03;;;;;;;11.77;9.98;;;9.50;96.70;;;;;;4837532;29;20102;-62
2023/11/30 00:41:32;;;;;;;12.00;10.35;;;9.50;96.70;;;;;;4820957;29;20213;-61
2023/11/30 00:44:01;;;;;;;14.85;10.48;;;9.50;96.70;;;;;;4854374;29;20471;-62
2023/11/30 00:46:29;;;;;;;12.50;10.40;;;9.50;96.70;;;;;;4859078;29;20064;-61
2023/11/30 00:48:58;;;;;;;14.85;10.82;;;9.50;96.70;;;;;;4853983;29;20093;-61
2023/11/30 00:51:29;;;;;;;11.40;9.70;;;9.50;96.70;;;;;;4833830;29;20054;-62
2023/11/30 00:54:00;;;;;;;13.98;10.27;;;9.50;96.70;;;;;;4808259;29;20116;-62
2023/11/30 00:56:29;;;;;;;15.20;10.07;;;9.50;96.70;;;;;;4854643;29;21010;-62
2023/11/30 00:58:57;;;;;;;13.00;10.05;;;9.50;96.70;;;;;;4841855;29;20049;-62
2023/11/30 01:01:27;;;;;;;15.48;10.38;;;9.50;96.70;;;;;;4818939;29;20058;-62
2023/11/30 01:03:56;;;;;;;11.63;9.65;;;9.50;96.70;;;;;;4813918;29;20047;-62
2023/11/30 01:06:25;;;;;;;12.70;9.73;;;9.50;96.70;;;;;;4835110;29;20153;-62
2023/11/30 01:08:56;;;;;;;11.90;9.82;;;9.50;96.70;;;;;;4796324;29;20462;-61
2023/11/30 01:11:26;;;;;;;13.30;9.15;;;9.50;96.70;;;;;;4802118;29;20442;-62
2023/11/30 01:13:55;;;;;;;14.25;9.73;;;9.50;96.70;;;;;;4806010;29;20061;-62
2023/11/30 01:16:24;;;;;;;13.25;9.48;;;9.60;96.70;;;;;;4819169;29;20047;-61
2023/11/30 01:18:53;;;;;;;11.15;8.88;;;9.60;96.70;;;;;;4807418;29;20050;-61
2023/11/30 01:21:22;;;;;;;11.50;9.30;;;9.60;96.70;;;;;;4818653;29;20061;-61
2023/11/30 01:23:50;;;;;;;12.95;9.63;;;9.50;96.70;;;;;;4803104;29;20478;-62
2023/11/30 01:26:19;;;;;;;11.00;8.85;;;9.60;96.70;;;;;;4813168;29;20513;-62
2023/11/30 01:28:50;;;;;;;13.95;9.35;;;9.60;96.70;;;;;;4814600;29;20064;-61
2023/11/30 01:31:21;;;;;;;10.30;9.07;;;9.60;96.70;;;;;;4806285;29;20491;-61
2023/11/30 01:33:50;;;;;;;12.43;9.57;;;9.60;96.70;;;;;;4805315;29;20058;-61
2023/11/30 01:36:19;;;;;;;11.18;9.05;;;9.60;96.70;;;;;;4818661;29;20141;-62
2023/11/30 01:38:48;;;;;;;11.65;9.20;;;9.60;96.70;;;;;;4840908;29;20049;-62
2023/11/30 01:41:17;;;;;;;10.88;9.13;;;9.60;96.70;;;;;;4859288;29;20049;-62
2023/11/30 01:43:46;;;;;;;11.43;8.82;;;9.60;96.70;;;;;;4839940;29;20053;-62
2023/11/30 01:46:16;;;;;;;11.95;8.57;;;9.60;96.70;;;;;;4852222;29;20797;-62
2023/11/30 01:48:47;;;;;;;10.63;7.80;;;9.60;96.70;;;;;;4826068;29;20050;-62
2023/11/30 01:51:16;;;;;;;9.25;7.70;;;9.60;96.70;;;;;;4839099;29;20053;-61
2023/11/30 01:53:45;;;;;;;9.95;7.90;;;9.60;96.70;;;;;;4826399;29;20056;-62
2023/11/30 01:56:15;;;;;;;10.18;7.25;;;9.60;96.70;;;;;;4842784;29;20064;-61
2023/11/30 01:58:44;;;;;;;9.32;8.00;;;9.70;96.70;;;;;;4856641;29;20056;-61
2023/11/30 02:01:12;;;;;;;11.13;7.40;;;9.60;96.70;;;;;;4825292;29;20524;-62
2023/11/30 02:03:44;;;;;;;9.60;7.13;;;9.70;96.70;;;;;;4844119;29;20117;-62
2023/11/30 02:06:16;;;;;;;8.20;6.60;;;9.70;96.70;;;;;;4858267;29;20118;-61
2023/11/30 02:08:44;;;;;;;9.82;6.75;;;9.70;96.70;;;;;;4841283;29;20144;-62
2023/11/30 02:11:13;;;;;;;7.85;6.03;;;9.70;96.70;;;;;;4826845;29;20177;-62
2023/11/30 02:13:41;;;;;;;8.57;6.80;;;9.70;96.70;;;;;;4827031;29;20574;-62
2023/11/30 02:16:10;;;;;;;9.13;6.35;;;9.70;96.70;;;;;;4832690;29;20050;-62
2023/11/30 02:18:39;;;;;;;9.27;6.38;;;9.70;96.70;;;;;;4846882;29;20063;-61
2023/11/30 02:21:10;;;;;;;8.65;6.70;;;9.80;96.70;;;;;;4844836;29;20044;-62
2023/11/30 02:23:40;;;;;;;8.70;6.53;;;9.80;96.70;;;;;;4858029;29;20080;-62
2023/11/30 02:26:09;;;;;;;8.18;6.65;;;9.80;96.70;;;;;;4859874;29;20063;-62
2023/11/30 02:28:37;;;;;;;7.88;5.68;;;9.80;96.70;;;;;;4866057;29;20144;-62
2023/11/30 02:31:07;;;;;;;9.88;6.50;;;9.80;96.70;;;;;;4845449;29;20052;-62
2023/11/30 02:33:37;;;;;;;8.57;6.57;;;9.80;96.70;;;;;;4859112;29;20501;-61
2023/11/30 02:36:07;;;;;;;6.82;6.10;;;9.80;96.70;;;;;;4850268;29;20048;-62
2023/11/30 02:38:36;;;;;;;9.07;6.25;;;9.80;96.70;;;;;;4839107;29;20461;-62
2023/11/30 02:41:08;;;;;;;9.68;6.50;;;9.80;96.70;;;;;;4847112;29;20064;-62
2023/11/30 02:43:37;;;;;;;9.27;6.55;;;9.80;96.70;;;;;;4845779;29;20056;-62
2023/11/30 02:46:08;;;;;;;6.68;5.97;;;9.90;96.70;;;;;;4838074;29;20037;-61
2023/11/30 02:48:37;;;;;;;8.30;6.80;;;9.80;96.70;;;;;;4860243;29;20588;-61
2023/11/30 02:51:06;;;;;;;8.50;6.55;;;9.90;96.70;;;;;;4874103;29;20044;-61
2023/11/30 02:53:35;;;;;;;7.25;6.07;;;9.90;96.70;;;;;;4828401;29;20505;-61
2023/11/30 02:56:07;;;;;;;9.70;7.35;;;9.80;96.70;;;;;;4836298;29;20504;-62
2023/11/30 02:58:35;;;;;;;9.18;6.85;;;9.80;96.70;;;;;;4826122;29;20053;-62
2023/11/30 03:01:04;;;;;;;8.98;7.10;;;9.80;96.70;;;;;;4841871;29;20540;-62
2023/11/30 03:03:33;;;;;;;11.43;7.18;;;9.80;96.70;;;;;;4839752;29;20098;-62
2023/11/30 03:06:01;;;;;;;9.15;7.10;;;9.80;96.70;;;;;;4821193;29;20057;-61
2023/11/30 03:08:30;;;;;;;9.77;7.43;;;9.80;96.70;;;;;;4826776;29;20526;-61
2023/11/30 03:10:59;;;;;;;9.18;6.60;;;9.80;96.70;;;;;;4841019;29;20061;-61
2023/11/30 03:13:29;;;;;;;11.65;7.35;;;9.70;96.70;;;;;;4838427;29;20093;-60
2023/11/30 03:15:59;;;;;;;11.00;7.57;;;9.80;96.70;;;;;;4826724;29;20109;-61
2023/11/30 03:18:27;;;;;;;9.05;7.50;;;9.80;96.70;;;;;;4810506;29;20053;-61
2023/11/30 03:20:56;;;;;;;9.63;6.78;;;9.80;96.70;;;;;;4828538;29;20555;-61
2023/11/30 03:23:25;;;;;;;9.70;7.20;;;9.80;96.70;;;;;;4830297;29;20073;-61
2023/11/30 03:26:02;;;;;;;10.32;7.03;;;9.80;96.70;;;;;;4834108;29;20085;-60
2023/11/30 03:28:33;;;;;;;10.95;6.72;;;9.80;96.70;;;;;;4852252;29;20053;-60
2023/11/30 03:31:03;;;;;;;10.02;7.22;;;9.80;96.70;;;;;;4830486;29;20084;-60
2023/11/30 03:33:31;;;;;;;9.90;7.18;;;9.70;96.70;;;;;;4846035;29;20048;-60
2023/11/30 03:36:00;;;;;;;10.98;7.50;;;9.80;96.70;;;;;;4861837;29;20570;-61
2023/11/30 03:38:28;;;;;;;9.07;6.55;;;9.80;96.70;;;;;;4864931;29;20060;-61
2023/11/30 03:40:57;;;;;;;8.05;6.65;;;9.80;96.70;;;;;;4856865;29;20624;-61
2023/11/30 03:43:26;;;;;;;10.35;6.60;;;9.80;96.70;;;;;;4854383;29;20510;-61
2023/11/30 03:45:56;;;;;;;10.20;7.38;;;9.80;96.70;;;;;;4848308;29;20040;-61
2023/11/30 03:48:25;;;;;;;9.10;6.25;;;9.80;96.70;;;;;;4845659;29;20144;-61
2023/11/30 03:50:53;;;;;;;10.50;6.88;;;9.80;96.70;;;;;;4840585;29;20048;-61
2023/11/30 03:53:24;;;;;;;9.32;6.50;;;9.80;96.70;;;;;;4860139;29;20041;-60
2023/11/30 03:55:53;;;;;;;10.43;6.78;;;9.80;96.70;;;;;;5475502;23;20843;-60
2023/11/30 03:58:25;;;;;;;11.50;6.40;;;9.80;96.70;;;;;;4882595;24;20449;-62
2023/11/30 04:00:56;;;;;;;9.75;6.47;;;9.80;96.70;;;;;;4861164;29;20051;-62
2023/11/30 04:03:24;;;;;;;10.98;7.03;;;9.80;96.70;;;;;;4887546;29;20140;-63
2023/11/30 04:05:52;;;;;;;9.40;6.78;;;9.80;96.70;;;;;;4872683;29;20056;-63
2023/11/30 04:08:22;;;;;;;8.80;6.28;;;9.80;96.70;;;;;;4855451;29;20060;-63
2023/11/30 04:10:51;;;;;;;10.63;6.68;;;9.80;96.70;;;;;;4888083;29;20384;-62
2023/11/30 04:13:20;;;;;;;9.38;7.00;;;9.80;96.70;;;;;;4853407;29;20503;-63
2023/11/30 04:15:49;;;;;;;10.25;7.43;;;9.80;96.70;;;;;;4854744;29;20049;-62
2023/11/30 04:18:21;;;;;;;11.65;7.20;;;9.80;96.70;;;;;;4858136;29;20064;-62
2023/11/30 04:20:50;;;;;;;8.90;7.32;;;9.80;96.70;;;;;;4861447;29;20523;-62
2023/11/30 04:23:18;;;;;;;10.35;6.20;;;9.80;96.70;;;;;;4841949;29;20045;-62
2023/11/30 04:25:48;;;;;;;9.50;7.10;;;9.80;96.70;;;;;;4854393;29;20085;-62
2023/11/30 04:28:16;;;;;;;8.75;6.72;;;9.80;96.70;;;;;;4865531;29;20057;-62
2023/11/30 04:30:46;;;;;;;7.57;6.15;;;9.90;96.70;;;;;;4858260;29;20045;-62
2023/11/30 04:33:16;;;;;;;9.30;6.68;;;9.90;96.70;;;;;;4844323;29;20077;-62
2023/11/30 04:35:46;;;;;;;9.43;7.25;;;9.90;96.70;;;;;;4842131;29;20051;-63
2023/11/30 04:38:14;;;;;;;8.65;6.50;;;9.90;96.70;;;;;;4871475;29;20057;-62
2023/11/30 04:40:43;;;;;;;10.10;7.13;;;9.90;96.70;;;;;;4842467;29;20053;-62
2023/11/30 04:43:12;;;;;;;8.75;6.60;;;9.90;96.70;;;;;;4866566;29;20530;-62
2023/11/30 04:45:40;;;;;;;8.85;6.75;;;9.90;96.70;;;;;;4897732;29;20045;-62
2023/11/30 04:48:08;;;;;;;8.60;6.30;;;9.90;96.70;;;;;;4866570;29;20041;-62
2023/11/30 04:50:37;;;;;;;12.10;7.22;;;9.90;96.70;;;;;;4870860;29;20430;-62
2023/11/30 04:53:07;;;;;;;11.70;6.53;;;9.90;96.70;;;;;;4859563;29;20132;-62
2023/11/30 04:55:35;;;;;;;7.72;6.35;;;9.90;96.70;;;;;;4859198;29;20071;-62
2023/11/30 04:58:03;;;;;;;9.40;6.47;;;9.90;96.70;;;;;;4862343;29;20091;-62
2023/11/30 05:00:32;;;;;;;8.82;6.45;;;9.90;96.70;;;;;;4862347;29;20053;-62
2023/11/30 05:03:01;;;;;;;9.25;6.05;;;10.00;96.70;;;;;;4859951;29;20045;-62
2023/11/30 05:05:30;;;;;;;7.60;5.57;;;10.00;96.70;;;;;;4861983;29;20529;-62
2023/11/30 05:07:59;;;;;;;7.63;5.57;;;10.00;96.70;;;;;;4842582;29;20140;-63
2023/11/30 05:10:31;;;;;;;9.48;5.60;;;10.00;96.70;;;;;;4839950;29;20461;-62
2023/11/30 05:12:59;;;;;;;7.22;5.18;;;10.00;96.70;;;;;;4846589;29;20140;-62
2023/11/30 05:15:27;;;;;;;8.18;5.28;;;10.00;96.70;;;;;;4877272;29;20080;-62
2023/11/30 05:17:57;;;;;;;5.80;4.90;;;10.00;96.70;;;;;;4854287;29;20137;-62
2023/11/30 05:20:28;;;;;;;6.72;5.28;;;10.00;96.70;;;;;;4874434;29;20053;-62
2023/11/30 05:22:57;;;;;;;6.65;5.40;;;10.00;96.70;;;;;;4850431;29;20546;-62
2023/11/30 05:25:25;;;;;;;8.07;5.20;;;10.10;96.70;;;;;;4861105;29;20052;-62
2023/11/30 05:27:57;;;;;;;7.25;5.22;;;10.10;96.70;;;;;;4882594;29;20112;-62
2023/11/30 05:30:26;;;;;;;7.47;5.13;;;10.00;96.70;;;;;;4858398;29;20049;-63
2023/11/30 05:32:55;;;;;;;6.32;4.72;;;10.10;96.70;;;;;;4858417;29;20048;-62
2023/11/30 05:35:23;;;;;;;16.25;10.50;;;10.10;96.70;;;;;;4856310;29;20085;-62
2023/11/30 05:37:52;;;;;;;9.88;7.13;;;10.00;96.70;;;;;;4850629;29;20053;-62
2023/11/30 05:40:20;;;;;;;8.68;6.55;;;10.00;96.70;;;;;;4861104;29;20103;-62
2023/11/30 05:42:48;;;;;;;6.20;5.03;;;10.00;96.70;;;;;;4876020;29;20041;-63
2023/11/30 05:45:19;;;;;;;5.45;4.28;;;10.00;96.70;;;;;;4877140;29;20048;-62
2023/11/30 05:47:48;;;;;;;5.47;3.70;;;10.00;96.70;;;;;;4862237;29;20053;-62
2023/11/30 05:50:16;;;;;;;4.78;3.53;;;10.00;96.70;;;;;;4852415;29;20597;-62
2023/11/30 05:52:47;;;;;;;4.93;3.22;;;10.00;96.70;;;;;;4876951;29;20076;-63
2023/11/30 05:55:16;;;;;;;4.53;3.25;;;10.00;96.70;;;;;;4860425;29;20063;-62
2023/11/30 05:57:45;;;;;;;4.97;3.03;;;10.00;96.70;;;;;;4876415;29;20056;-63
2023/11/30 06:00:15;;;;;;;4.78;2.90;;;10.00;96.70;;;;;;4863242;29;20048;-63
2023/11/30 06:02:45;;;;;;;3.85;2.72;;;10.10;96.70;;;;;;4875662;29;20032;-62
2023/11/30 06:05:14;;;;;;;2.97;2.22;;;10.10;96.70;;;;;;4901856;29;20072;-63
2023/11/30 06:07:44;;;;;;;3.78;2.50;;;10.10;96.70;;;;;;4892817;29;20056;-62
2023/11/30 06:10:14;;;;;;;2.80;2.28;;;10.10;96.70;;;;;;4862478;29;20100;-63
2023/11/30 06:12:41;;;;;;;3.45;1.98;;;10.10;96.70;;;;;;4858874;29;20053;-63
2023/11/30 06:15:11;;;;;;;5.03;2.67;;;10.10;96.70;;;;;;4845877;29;20513;-62
2023/11/30 06:17:41;;;;;;;3.17;2.58;;;10.10;96.70;;;;;;4870994;29;20625;-63
2023/11/30 06:20:12;;;;;;;4.50;3.08;;;10.10;96.70;;;;;;4844326;29;20057;-62
2023/11/30 06:22:40;;;;;;;4.60;2.53;;;10.10;96.70;;;;;;4845421;29;20064;-62
2023/11/30 06:25:12;;;;;;;6.47;2.88;;;10.10;96.70;;;;;;4854228;29;20045;-62
2023/11/30 06:27:42;;;;;;;4.97;2.55;;;10.10;96.70;;;;;;4843975;29;20057;-62
2023/11/30 06:30:11;;;;;;;3.08;2.40;;;10.10;96.70;;;;;;4854565;29;20053;-62
2023/11/30 06:32:40;;;;;;;4.78;2.15;;;10.10;96.70;;;;;;4846188;29;20457;-63
2023/11/30 06:35:11;;;;;;;3.72;2.20;;;10.10;96.70;;;;;;4837836;29;20427;-62
2023/11/30 06:37:39;;;;;;;3.15;2.22;;;10.10;96.70;;;;;;4859513;29;20055;-62
2023/11/30 06:40:09;;;;;;;2.47;1.38;;;10.20;96.70;;;;;;4841107;29;20045;-63
2023/11/30 06:42:38;;;;;;;2.13;1.15;;;10.20;96.70;;;;;;4846019;29;20085;-62
2023/11/30 06:45:07;;;;;;;2.58;1.45;;;10.20;96.70;;;;;;4833386;29;20048;-63
2023/11/30 06:47:37;;;;;;;2.10;1.00;;;10.20;96.70;;;;;;4861808;29;20067;-62
2023/11/30 06:50:07;;;;;;;1.83;1.10;;;10.20;96.70;;;;;;4887100;29;20072;-63
2023/11/30 06:52:38;;;;;;;2.30;1.40;;;10.20;96.70;;;;;;4877106;29;20049;-62
2023/11/30 06:55:08;;;;;;;1.88;1.00;;;10.20;96.70;;;;;;4850066;29;20191;-62
2023/11/30 06:57:38;;;;;;;2.47;1.10;;;10.20;96.70;;;;;;4863944;29;20067;-66
2023/11/30 07:00:12;;;;;;;1.77;0.60;;;10.20;96.70;;;;;;4873743;29;20056;-63
2023/11/30 07:02:41;;;;;;;2.20;1.38;;;10.20;96.70;;;;;;4901504;29;20443;-63
2023/11/30 07:05:12;;;;;;;2.95;1.73;;;10.20;96.70;;;;;;4892861;29;20466;-62
2023/11/30 07:07:42;;;;;;;3.05;1.50;;;10.20;96.70;;;;;;4864045;29;20629;-62
2023/11/30 07:10:12;;;;;;;1.77;0.90;;;10.20;96.70;;;;;;4855599;29;20084;-62
2023/11/30 07:12:42;;;;;;;1.42;1.10;;;10.20;96.70;;;;;;4852324;29;20057;-62
2023/11/30 07:15:11;;;;;;;3.38;1.50;;;10.20;96.70;;;;;;4870797;29;20057;-62
2023/11/30 07:17:40;;;;;;;1.80;1.40;;;10.20;96.70;;;;;;4863471;29;20048;-62
2023/11/30 07:20:10;;;;;;;2.33;1.20;;;10.20;96.70;;;;;;4869557;29;20404;-63
2023/11/30 07:22:38;;;;;;;2.17;1.60;;;10.30;96.70;;;;;;4874538;29;20140;-63
2023/11/30 07:25:09;;;;;;;2.70;1.52;;;10.30;96.70;;;;;;4861173;29;20156;-63
2023/11/30 07:27:40;;;;;;;4.60;1.65;;;10.20;96.70;;;;;;4860916;29;20657;-63
2023/11/30 07:30:09;;;;;;;3.58;1.50;;;10.20;96.70;;;;;;4873500;29;20496;-63
2023/11/30 07:32:38;;;;;;;2.25;1.30;;;10.30;96.70;;;;;;4851214;29;20100;-63
2023/11/30 07:35:08;;;;;;;2.50;1.20;;;10.30;96.70;;;;;;4839440;29;20091;-63
2023/11/30 07:37:36;;;;;;;3.05;1.33;;;10.30;96.70;;;;;;4873372;29;20160;-64
2023/11/30 07:40:09;;;;;;;2.38;1.20;;;10.30;96.70;;;;;;4852821;29;20061;-63
2023/11/30 07:42:37;;;;;;;2.75;1.20;;;10.30;96.70;;;;;;4847439;29;20056;-63
2023/11/30 07:45:09;;;;;;;2.08;1.27;;;10.30;96.70;;;;;;4855613;29;20393;-63
2023/11/30 07:47:38;;;;;;;2.45;1.05;;;10.30;96.70;;;;;;4845906;29;20076;-64
2023/11/30 07:50:08;;;;;;;3.47;1.70;;;10.40;96.70;;;;;;4872478;29;20044;-63
2023/11/30 07:52:37;;;;;;;3.67;2.00;;;10.40;96.70;;;;;;4857158;29;20135;-64
2023/11/30 07:55:08;;;;;;;2.90;1.95;;;10.40;96.70;;;;;;4869116;29;20107;-60
2023/11/30 07:57:37;;;;;;;5.68;3.40;;;10.40;96.70;;;;;;4865426;29;20072;-61
2023/11/30 08:00:08;;;;;;;4.13;2.25;;;10.40;96.70;;;;;;4855032;29;20144;-60
2023/11/30 08:02:37;;;;;;;5.18;2.50;;;10.40;96.70;;;;;;4845860;29;20678;-60
2023/11/30 08:05:06;;;;;;;4.05;2.58;;;10.50;96.70;;;;;;4857626;29;20140;-60
2023/11/30 08:07:35;;;;;;;2.85;1.98;;;10.50;96.70;;;;;;4873610;29;20060;-60
2023/11/30 08:10:06;;;;;;;4.53;3.17;;;10.50;96.70;;;;;;4857876;29;20060;-60
2023/11/30 08:12:37;;;;;;;7.95;5.85;;;10.50;96.70;;;;;;4859045;29;20104;-60
2023/11/30 08:15:07;;;;;;;6.78;4.53;;;10.50;96.70;;;;;;4874652;29;20049;-60
2023/11/30 08:17:36;;;;;;;4.47;3.30;;;10.50;96.70;;;;;;4845152;29;20045;-61
2023/11/30 08:20:15;;;;;;;5.65;3.35;;;10.50;96.70;;;;;;4851133;29;20053;-59
2023/11/30 08:22:44;;;;;;;3.92;2.50;;;10.60;96.70;;;;;;4866903;29;20146;-59
2023/11/30 08:25:15;;;;;;;3.97;2.78;;;10.60;96.70;;;;;;4863391;29;20043;-60
2023/11/30 08:27:46;;;;;;;2.35;1.77;;;10.60;96.70;;;;;;4862878;29;20061;-60
2023/11/30 08:30:19;;;;;;;3.17;2.22;;;10.60;96.70;;;;;;4856405;29;20109;-60
2023/11/30 08:32:48;;;;;;;2.08;1.63;;;10.60;96.70;;;;;;4865440;29;20507;-60
2023/11/30 08:35:17;;;;;;;3.10;2.22;;;10.60;96.70;;;;;;4867805;29;20061;-60
2023/11/30 08:37:46;;;;;;;4.70;2.60;;;10.70;96.70;;;;;;4861346;29;20052;-61
2023/11/30 08:40:15;;;;;;;3.20;2.13;;;10.70;96.70;;;;;;4859498;29;20040;-60
2023/11/30 08:42:46;;;;;;;4.18;2.10;;;10.80;96.70;;;;;;4844968;29;20061;-60
2023/11/30 08:45:14;;;;;;;3.20;2.30;;;10.80;96.70;;;;;;4839705;29;20045;-60
2023/11/30 08:47:43;;;;;;;2.63;1.83;;;10.80;96.70;;;;;;4848380;29;20044;-60
2023/11/30 08:50:12;;;;;;;2.20;1.88;;;10.80;96.70;;;;;;4867769;29;20049;-60
2023/11/30 08:52:40;;;;;;;2.90;2.00;;;10.80;96.70;;;;;;4857338;29;20520;-60
2023/11/30 08:55:09;;;;;;;2.10;1.70;;;10.80;96.70;;;;;;4871103;29;20453;-60
2023/11/30 08:57:39;;;;;;;47.15;35.05;;;10.80;96.70;;;;;;4849217;29;20065;-61
2023/11/30 09:00:14;;;;;;;5.20;3.58;;;10.80;96.70;;;;;;4863894;29;20100;-60
2023/11/30 09:02:48;;;;;;;3.90;3.20;;;10.90;96.70;;;;;;4889477;29;20519;-60
2023/11/30 09:05:19;;;;;;;3.22;2.78;;;10.90;96.70;;;;;;4873505;29;20078;-60
2023/11/30 09:07:50;;;;;;;3.15;2.35;;;10.90;96.70;;;;;;4865527;29;20144;-60
2023/11/30 09:10:20;;;;;;;6.15;4.25;;;10.90;96.70;;;;;;4864649;29;20057;-60
2023/11/30 09:12:50;;;;;;;3.63;3.15;;;11.00;96.70;;;;;;4878778;29;20056;-61
2023/11/30 09:15:21;;;;;;;3.15;2.50;;;11.00;96.70;;;;;;4861665;29;20032;-61
2023/11/30 09:17:50;;;;;;;2.42;2.22;;;11.00;96.70;;;;;;4858546;29;20049;-60
2023/11/30 09:20:19;;;;;;;3.50;2.40;;;11.00;96.70;;;;;;4867413;29;20045;-60
2023/11/30 09:22:49;;;;;;;3.60;2.45;;;11.00;96.70;;;;;;4863504;29;20045;-60
2023/11/30 09:25:17;;;;;;;6.78;5.10;;;11.00;96.70;;;;;;4881387;29;20070;-60
2023/11/30 09:27:46;;;;;;;4.85;3.40;;;11.00;96.70;;;;;;4877938;29;20780;-60
2023/11/30 09:30:15;;;;;;;6.05;4.32;;;11.00;96.70;;;;;;4853214;29;20397;-60
2023/11/30 09:32:46;;;;;;;5.28;3.70;;;11.00;96.70;;;;;;4861618;29;20051;-60
2023/11/30 09:35:15;;;;;;;3.30;3.00;;;11.00;96.70;;;;;;4832705;29;20064;-60
2023/11/30 09:37:45;;;;;;;5.25;3.85;;;11.00;96.70;;;;;;4849578;29;20071;-60
2023/11/30 09:40:13;;;;;;;5.05;3.80;;;11.00;96.70;;;;;;4841436;29;20061;-60
2023/11/30 09:42:42;;;;;;;6.10;4.00;;;11.00;96.70;;;;;;4863373;29;20077;-60
2023/11/30 09:45:10;;;;;;;4.80;4.25;;;11.00;96.70;;;;;;4871970;29;20377;-60
2023/11/30 09:47:39;;;;;;;5.32;4.15;;;11.00;96.70;;;;;;4860182;29;20060;-60
2023/11/30 09:50:10;;;;;;;4.63;4.03;;;11.00;96.70;;;;;;4866342;29;20087;-60
2023/11/30 09:52:47;;;;;;;9.20;6.88;;;11.00;96.70;;;;;;4870026;29;20059;-60
2023/11/30 09:55:15;;;;;;;;;;;11.00;96.70;;;;;;4841832;29;20044;-60
2023/11/30 09:57:44;;;;;;;6.60;3.88;;;11.00;96.70;;;;;;4869996;29;20018;-59
2023/11/30 10:00:14;;;;;;;7.25;4.50;;;11.00;96.70;;;;;;4865679;29;20087;-59
2023/11/30 10:02:52;;;;;;;5.15;4.13;;;11.00;96.70;;;;;;4863359;29;20085;-59
2023/11/30 10:05:25;;;;;;;6.65;3.90;;;11.00;96.70;;;;;;4874379;29;20061;-59
2023/11/30 10:07:53;;;;;;;6.50;4.22;;;11.10;96.70;;;;;;4874000;29;20055;-59
2023/11/30 10:10:26;;;;;;;8.52;5.60;;;11.10;96.70;;;;;;4860591;29;20838;-59
2023/11/30 10:12:55;;;;;;;7.38;4.68;;;11.10;96.70;;;;;;4864149;29;20512;-60
2023/11/30 10:15:25;;;;;;;5.32;4.50;;;11.10;96.70;;;;;;4872600;29;20500;-59
2023/11/30 10:17:54;;;;;;;7.00;4.25;;;11.10;96.70;;;;;;4844046;29;20049;-60
2023/11/30 10:20:25;;;;;;;8.65;6.10;;;11.10;96.70;;;;;;4870120;29;20055;-59
2023/11/30 10:22:56;;;;;;;8.98;5.88;;;11.20;96.70;;;;;;4879102;29;20073;-60
2023/11/30 10:25:25;;;;;;;8.07;5.40;;;11.20;96.70;;;;;;4842442;29;20045;-59
2023/11/30 10:27:56;;;;;;;5.38;4.15;;;11.20;96.70;;;;;;4906180;29;20466;-60
2023/11/30 10:30:31;;;;;;;6.63;4.68;;;11.20;96.70;;;;;;4874302;29;20092;-60
2023/11/30 10:33:01;;;;;;;6.65;4.70;;;11.30;96.70;;;;;;4831279;29;20079;-60
2023/11/30 10:35:32;;;;;;;10.63;7.60;;;11.30;96.70;;;;;;4851356;29;20432;-60
2023/11/30 10:38:05;;;;;;;13.73;8.80;;;11.30;96.70;;;;;;4843471;29;20792;-59
2023/11/30 10:40:36;;;;;;;17.00;10.65;;;11.30;96.70;;;;;;4863411;29;20080;-59
2023/11/30 10:43:08;;;;;;;8.77;7.22;;;11.40;96.70;;;;;;4829637;29;20076;-60
2023/11/30 10:45:41;;;;;;;15.95;12.75;;;11.40;96.70;;;;;;4829902;29;20090;-59
2023/11/30 10:48:12;;;;;;;8.25;6.95;;;11.50;96.70;;;;;;4844564;29;20457;-60
2023/11/30 10:50:44;;;;;;;6.40;5.30;;;11.50;96.70;;;;;;4857402;29;20056;-59
2023/11/30 10:53:24;;;;;;;8.27;5.63;;;11.50;96.70;;;;;;4859046;29;20053;-59
2023/11/30 10:56:02;;;;;;;7.35;5.13;;;11.60;96.70;;;;;;4835611;29;20049;-60
2023/11/30 10:58:32;;;;;;;5.88;5.03;;;11.50;96.70;;;;;;4817082;29;20168;-60
2023/11/30 11:01:01;;;;;;;5.15;4.65;;;11.50;96.70;;;;;;4845760;29;20049;-61
2023/11/30 11:03:31;;;;;;;5.97;4.57;;;11.60;96.70;;;;;;4861848;29;20084;-60
2023/11/30 11:06:05;;;;;;;5.68;5.07;;;11.60;96.70;;;;;;4853130;29;20049;-63
2023/11/30 11:08:34;;;;;;;6.32;5.03;;;11.70;96.70;;;;;;4853126;29;20053;-60
2023/11/30 11:11:08;;;;;;;6.47;4.90;;;11.70;96.70;;;;;;4845082;29;20097;-60
2023/11/30 11:13:46;;;;;;;8.73;5.30;;;11.70;96.70;;;;;;4847867;29;20049;-60
2023/11/30 11:16:41;;;;;;;6.25;5.07;;;11.80;96.70;;;;;;4866434;29;20400;-60
2023/11/30 11:19:16;;;;;;;7.13;5.28;;;11.70;96.70;;;;;;4844020;29;20081;-61
2023/11/30 11:21:59;;;;;;;;;;;;;;;;;;;;;
2023/11/30 11:24:37;;;;;;;6.93;5.57;;;11.70;96.70;;;;;;4849503;29;20053;-59
2023/11/30 11:27:10;;;;;;;8.07;6.20;;;11.70;96.70;;;;;;4844667;29;20136;-62
2023/11/30 11:29:40;;;;;;;10.75;7.03;;;11.70;96.70;;;;;;4835439;29;20551;-60
2023/11/30 11:32:15;;;;;;;11.15;7.60;;;11.80;96.70;;;;;;4856225;29;20184;-60
2023/11/30 11:34:44;;;;;;;8.68;6.28;;;11.80;96.70;;;;;;4825431;29;20045;-60
2023/11/30 11:37:16;;;;;;;10.07;8.07;;;11.90;96.70;;;;;;4848628;29;20401;-60
2023/11/30 11:39:46;;;;;;;14.88;11.55;;;11.90;96.70;;;;;;4852286;29;20053;-60
2023/11/30 11:42:15;;;;;;;10.23;7.82;;;11.90;96.70;;;;;;4828538;29;20057;-59
2023/11/30 11:44:44;;;;;;;9.05;6.95;;;11.90;96.70;;;;;;4834518;29;20037;-61
2023/11/30 11:47:13;;;;;;;7.47;6.03;;;11.90;96.70;;;;;;4827386;29;20062;-61
2023/11/30 11:49:42;;;;;;;5.13;4.60;;;11.90;96.70;;;;;;4826380;29;20432;-61
2023/11/30 11:52:25;;;;;;;7.38;5.90;;;11.90;96.70;;;;;;4843560;29;20480;-61
2023/11/30 11:55:03;;;;;;;9.82;6.72;;;11.90;96.70;;;;;;4858663;29;20072;-60
2023/11/30 11:57:38;;;;;;;12.02;7.85;;;12.00;96.70;;;;;;4868254;29;20558;-61
2023/11/30 12:00:17;;;;;;;10.23;6.28;;;12.00;96.70;;;;;;4871697;29;20187;-60
2023/11/30 12:02:47;;;;;;;8.27;6.85;;;12.00;96.70;;;;;;4860479;29;20482;-60
2023/11/30 12:05:35;;;;;;;6.55;5.85;;;12.00;96.70;;;;;;4868930;29;20040;-60
2023/11/30 12:08:05;;;;;;;6.43;5.82;;;12.00;96.70;;;;;;4876358;29;20139;-61
2023/11/30 12:10:39;;;;;;;7.03;5.82;;;12.00;96.70;;;;;;4857834;29;20461;-59
2023/11/30 12:13:10;;;;;;;6.20;5.30;;;12.10;96.70;;;;;;4846359;29;20120;-59
2023/11/30 12:15:39;;;;;;;6.93;6.10;;;12.10;96.70;;;;;;4869502;29;20048;-60
2023/11/30 12:18:10;;;;;;;8.25;7.07;;;12.10;96.70;;;;;;4875343;29;20056;-60
2023/11/30 12:20:39;;;;;;;17.05;13.52;;;12.10;96.70;;;;;;4838364;29;20052;-60
2023/11/30 12:23:12;;;;;;;13.60;11.82;;;12.10;96.70;;;;;;4857990;29;20049;-60
2023/11/30 12:25:43;;;;;;;11.73;9.13;;;12.20;96.70;;;;;;4874229;29;20289;-60
2023/11/30 12:28:11;;;;;;;12.35;11.00;;;12.20;96.70;;;;;;4858762;29;20059;-59
2023/11/30 12:30:41;;;;;;;22.08;16.83;;;12.20;96.70;;;;;;4885387;29;20052;-60
2023/11/30 12:33:10;;;;;;;17.63;14.10;;;12.20;96.70;;;;;;4860511;29;20045;-61
2023/11/30 12:35:54;;;;;;;16.08;12.80;;;12.30;96.70;;;;;;4878383;29;20401;-60
2023/11/30 12:38:26;;;;;;;13.25;11.85;;;12.30;96.70;;;;;;4883282;29;20062;-60
2023/11/30 12:40:55;;;;;;;16.10;12.10;;;12.30;96.70;;;;;;4877341;29;20044;-60
2023/11/30 12:43:24;;;;;;;13.18;10.77;;;12.30;96.70;;;;;;4855208;29;20088;-60
2023/11/30 12:45:53;;;;;;;13.10;9.88;;;12.40;96.70;;;;;;4877721;29;20044;-60
2023/11/30 12:48:57;;;;;;;12.95;10.55;;;12.40;96.70;;;;;;4862874;29;20073;-60
2023/11/30 12:51:29;;;;;;;14.25;11.18;;;12.40;96.70;;;;;;4875313;29;20420;-60
2023/11/30 12:54:00;;;;;;;12.05;10.18;;;12.40;96.70;;;;;;4859479;29;20057;-60
2023/11/30 12:56:30;;;;;;;13.77;10.88;;;12.40;96.70;;;;;;4862546;29;20055;-60
2023/11/30 12:58:59;;;;;;;9.85;7.38;;;12.40;96.70;;;;;;4858708;29;20045;-61
2023/11/30 13:01:46;;;;;;;10.25;8.40;;;12.40;96.70;;;;;;4872102;29;20142;-60
2023/11/30 13:04:17;;;;;;;12.70;10.18;;;12.40;96.70;;;;;;4864570;29;20423;-60